createdAt,value
2018-06-28T00:00:02.884Z,19.82
2018-06-28T00:02:31.793Z,19.84
2018-06-28T00:05:37.522Z,19.81
2018-06-28T00:08:06.404Z,19.77
2018-06-28T00:10:35.258Z,19.70
2018-06-28T00:13:04.147Z,19.58
2018-06-28T00:15:32.993Z,19.57
2018-06-28T00:18:01.848Z,19.71
2018-06-28T00:20:30.707Z,19.52
2018-06-28T00:22:59.570Z,19.52
2018-06-28T00:25:28.448Z,19.52
2018-06-28T00:27:58.973Z,19.52
2018-06-28T00:30:27.825Z,19.46
2018-06-28T00:32:56.698Z,19.41
2018-06-28T00:35:25.549Z,19.37
2018-06-28T00:37:54.408Z,19.33
2018-06-28T00:40:23.281Z,19.36
2018-06-28T00:42:52.182Z,19.37
2018-06-28T00:45:21.084Z,19.36
2018-06-28T00:47:50.015Z,19.29
2018-06-28T00:50:19.103Z,19.30
2018-06-28T00:52:47.956Z,19.23
2018-06-28T00:55:16.825Z,19.19
2018-06-28T00:57:45.674Z,19.16
2018-06-28T01:00:14.562Z,19.08
2018-06-28T01:02:43.410Z,19.01
2018-06-28T01:05:12.270Z,18.98
2018-06-28T01:07:41.121Z,18.94
2018-06-28T01:10:10.124Z,18.94
2018-06-28T01:13:42.796Z,18.95
2018-06-28T01:16:11.691Z,18.92
2018-06-28T01:18:40.553Z,18.91
2018-06-28T01:21:09.410Z,18.89
2018-06-28T01:23:38.249Z,18.84
2018-06-28T01:26:07.123Z,18.85
2018-06-28T01:28:35.961Z,18.81
2018-06-28T01:31:04.857Z,18.78
2018-06-28T01:33:33.838Z,18.74
2018-06-28T01:36:06.312Z,18.73
2018-06-28T01:38:35.173Z,18.72
2018-06-28T01:41:04.036Z,18.72
2018-06-28T01:43:46.700Z,18.74
2018-06-28T01:46:16.443Z,18.69
2018-06-28T01:48:45.558Z,18.59
2018-06-28T01:51:14.419Z,18.56
2018-06-28T01:53:43.264Z,18.58
2018-06-28T01:56:12.189Z,18.59
2018-06-28T01:58:41.059Z,18.56
2018-06-28T02:01:09.947Z,18.58
2018-06-28T02:03:38.839Z,18.47
2018-06-28T02:06:07.733Z,18.47
2018-06-28T02:08:36.631Z,18.44
2018-06-28T02:11:05.477Z,18.38
2018-06-28T02:13:34.399Z,18.34
2018-06-28T02:16:03.273Z,18.57
2018-06-28T02:18:35.165Z,18.47
2018-06-28T02:21:04.033Z,18.42
2018-06-28T02:23:32.938Z,18.38
2018-06-28T02:26:01.821Z,18.38
2018-06-28T02:28:30.710Z,18.36
2018-06-28T02:30:59.606Z,18.36
2018-06-28T02:33:28.512Z,18.33
2018-06-28T02:35:57.386Z,18.27
2018-06-28T02:38:26.278Z,18.28
2018-06-28T02:40:55.292Z,18.28
2018-06-28T02:43:24.226Z,18.28
2018-06-28T02:45:53.154Z,18.24
2018-06-28T02:48:22.055Z,18.20
2018-06-28T02:50:50.934Z,18.15
2018-06-28T02:53:19.823Z,18.12
2018-06-28T02:55:48.711Z,18.06
2018-06-28T02:58:17.585Z,18.06
2018-06-28T03:00:46.510Z,17.99
2018-06-28T03:03:15.493Z,17.93
2018-06-28T03:05:44.402Z,17.89
2018-06-28T03:08:13.255Z,17.84
2018-06-28T03:10:42.139Z,17.83
2018-06-28T03:13:10.994Z,17.85
2018-06-28T03:15:39.838Z,17.81
2018-06-28T03:18:08.743Z,17.73
2018-06-28T03:20:37.614Z,17.69
2018-06-28T03:23:06.506Z,17.65
2018-06-28T03:25:35.421Z,17.66
2018-06-28T03:28:04.294Z,17.63
2018-06-28T03:30:33.173Z,17.64
2018-06-28T03:33:02.031Z,17.66
2018-06-28T03:35:30.878Z,17.86
2018-06-28T03:37:59.878Z,17.71
2018-06-28T03:40:28.633Z,17.68
2018-06-28T03:42:57.521Z,17.63
2018-06-28T03:45:26.398Z,17.60
2018-06-28T03:47:55.285Z,17.58
2018-06-28T03:50:24.206Z,17.76
2018-06-28T03:52:53.091Z,17.87
2018-06-28T03:55:21.938Z,17.67
2018-06-28T03:57:50.782Z,17.86
2018-06-28T04:00:19.687Z,17.69
2018-06-28T04:02:48.526Z,17.64
2018-06-28T04:05:17.387Z,17.60
2018-06-28T04:07:46.239Z,17.60
2018-06-28T04:10:15.128Z,17.60
2018-06-28T04:12:44.009Z,17.58
2018-06-28T04:15:13.136Z,17.61
2018-06-28T04:17:41.999Z,17.61
2018-06-28T04:20:10.898Z,17.61
2018-06-28T04:22:39.765Z,17.64
2018-06-28T04:25:08.633Z,17.86
2018-06-28T04:27:37.534Z,17.73
2018-06-28T04:30:06.475Z,17.71
2018-06-28T04:32:35.468Z,17.72
2018-06-28T04:35:04.349Z,17.74
2018-06-28T04:37:33.190Z,17.70
2018-06-28T04:40:02.050Z,17.67
2018-06-28T04:42:30.908Z,17.66
2018-06-28T04:44:59.796Z,17.73
2018-06-28T04:47:28.666Z,17.81
2018-06-28T04:49:57.586Z,17.84
2018-06-28T04:52:26.362Z,17.83
2018-06-28T04:54:55.368Z,17.86
2018-06-28T04:57:24.226Z,17.90
2018-06-28T04:59:53.067Z,17.87
2018-06-28T05:02:21.959Z,18.15
2018-06-28T05:04:50.833Z,18.08
2018-06-28T05:07:19.755Z,18.08
2018-06-28T05:09:48.586Z,18.11
2018-06-28T05:12:17.468Z,18.13
2018-06-28T05:14:46.363Z,18.15
2018-06-28T05:18:10.402Z,18.16
2018-06-28T05:20:39.260Z,18.20
2018-06-28T05:23:08.136Z,18.24
2018-06-28T05:25:37.005Z,18.28
2018-06-28T05:28:05.903Z,18.36
2018-06-28T05:30:34.754Z,18.38
2018-06-28T05:33:03.648Z,18.58
2018-06-28T05:35:32.502Z,18.75
2018-06-28T05:38:01.389Z,18.63
2018-06-28T05:40:30.444Z,18.73
2018-06-28T05:42:59.268Z,18.77
2018-06-28T05:45:28.160Z,18.83
2018-06-28T05:47:57.033Z,18.91
2018-06-28T05:50:25.873Z,18.99
2018-06-28T05:52:54.720Z,19.33
2018-06-28T05:55:23.595Z,19.38
2018-06-28T05:57:52.429Z,19.75
2018-06-28T06:00:21.294Z,19.80
2018-06-28T06:02:51.174Z,20.00
2018-06-28T06:05:20.035Z,20.25
2018-06-28T06:07:48.909Z,20.49
2018-06-28T06:10:17.773Z,20.77
2018-06-28T06:12:46.602Z,21.01
2018-06-28T06:15:15.529Z,21.38
2018-06-28T06:17:44.333Z,21.76
2018-06-28T06:20:13.273Z,22.14
2018-06-28T06:22:42.095Z,22.51
2018-06-28T06:28:48.395Z,23.64
2018-06-28T06:31:17.291Z,24.10
2018-06-28T06:33:46.144Z,25.44
2018-06-28T06:36:15.018Z,27.89
2018-06-28T06:38:43.854Z,29.95
2018-06-28T06:41:12.758Z,31.67
2018-06-28T06:43:41.576Z,32.98
2018-06-28T06:46:10.730Z,34.04
2018-06-28T06:48:42.197Z,35.02
2018-06-28T06:51:11.062Z,35.61
2018-06-28T06:53:39.942Z,36.22
2018-06-28T06:56:08.817Z,36.55
2018-06-28T06:58:37.677Z,36.64
2018-06-28T07:01:06.536Z,37.21
2018-06-28T07:03:35.411Z,37.59
2018-06-28T07:06:04.258Z,37.79
2018-06-28T07:08:33.082Z,37.92
2018-06-28T07:11:02.038Z,38.71
2018-06-28T07:13:30.889Z,39.37
2018-06-28T07:15:59.973Z,39.54
2018-06-28T07:18:28.785Z,38.98
2018-06-28T07:20:57.632Z,39.50
2018-06-28T07:23:26.888Z,39.47
2018-06-28T07:25:56.557Z,39.39
2018-06-28T07:28:25.673Z,40.02
2018-06-28T07:30:54.701Z,40.62
2018-06-28T07:33:27.011Z,40.80
2018-06-28T07:35:56.073Z,40.96
2018-06-28T07:38:25.029Z,40.81
2018-06-28T07:40:53.908Z,40.16
2018-06-28T07:43:22.861Z,40.46
2018-06-28T07:45:51.753Z,40.39
2018-06-28T07:48:20.655Z,40.60
2018-06-28T07:50:49.517Z,41.28
2018-06-28T07:53:18.395Z,41.15
2018-06-28T07:55:50.194Z,41.07
2018-06-28T07:58:19.062Z,41.44
2018-06-28T08:00:47.935Z,41.72
2018-06-28T08:03:16.760Z,42.22
2018-06-28T08:05:45.698Z,41.75
2018-06-28T08:08:17.673Z,42.40
2018-06-28T08:10:50.518Z,42.45
2018-06-28T08:13:21.506Z,42.64
2018-06-28T08:15:59.343Z,42.42
2018-06-28T08:18:29.124Z,42.60
2018-06-28T08:20:58.917Z,42.89
2018-06-28T08:23:28.805Z,42.58
2018-06-28T08:25:57.655Z,42.16
2018-06-28T08:28:26.602Z,42.08
2018-06-28T08:30:55.535Z,42.20
2018-06-28T08:33:24.441Z,42.38
2018-06-28T08:35:53.478Z,42.60
2018-06-28T08:38:22.391Z,42.53
2018-06-28T08:40:51.244Z,42.41
2018-06-28T08:43:20.135Z,42.59
2018-06-28T08:45:48.988Z,42.54
2018-06-28T08:48:17.869Z,42.43
2018-06-28T08:50:46.778Z,43.03
2018-06-28T08:53:15.629Z,42.93
2018-06-28T08:55:44.501Z,42.46
2018-06-28T08:59:07.803Z,42.61
2018-06-28T09:01:36.722Z,42.51
2018-06-28T09:04:05.669Z,42.78
2018-06-28T09:06:34.577Z,42.88
2018-06-28T09:09:03.591Z,42.58
2018-06-28T09:11:32.465Z,42.12
2018-06-28T09:14:01.369Z,41.69
2018-06-28T09:16:30.205Z,41.61
2018-06-28T09:18:59.065Z,41.60
2018-06-28T09:21:28.030Z,42.11
2018-06-28T09:23:56.917Z,42.01
2018-06-28T09:26:26.151Z,42.03
2018-06-28T09:28:55.026Z,42.07
2018-06-28T09:31:23.920Z,42.05
2018-06-28T09:33:52.744Z,42.33
2018-06-28T09:36:21.599Z,42.38
2018-06-28T09:38:50.482Z,41.83
2018-06-28T09:41:19.370Z,41.70
2018-06-28T09:43:48.224Z,41.82
2018-06-28T09:46:17.068Z,41.81
2018-06-28T09:48:46.128Z,41.57
2018-06-28T09:51:14.885Z,40.66
2018-06-28T09:53:43.776Z,40.81
2018-06-28T09:56:12.600Z,40.88
2018-06-28T09:58:41.531Z,40.20
2018-06-28T10:01:10.378Z,40.65
2018-06-28T10:03:39.600Z,39.76
2018-06-28T10:06:08.441Z,37.97
2018-06-28T10:08:37.311Z,36.08
2018-06-28T10:11:06.299Z,35.85
2018-06-28T10:13:35.145Z,36.20
2018-06-28T10:16:04.029Z,36.97
2018-06-28T10:18:32.907Z,37.43
2018-06-28T10:21:01.801Z,37.82
2018-06-28T10:23:30.755Z,38.33
2018-06-28T10:26:02.449Z,38.67
2018-06-28T10:28:31.303Z,38.75
2018-06-28T10:31:00.230Z,38.15
2018-06-28T10:33:29.026Z,37.26
2018-06-28T10:35:57.965Z,37.62
2018-06-28T10:38:28.309Z,37.71
2018-06-28T10:40:57.187Z,38.13
2018-06-28T10:43:26.213Z,38.66
2018-06-28T10:45:55.139Z,39.52
2018-06-28T10:48:23.980Z,39.48
2018-06-28T10:50:52.860Z,39.15
2018-06-28T10:53:21.693Z,39.36
2018-06-28T10:55:50.683Z,38.33
2018-06-28T10:58:19.579Z,38.17
2018-06-28T11:00:48.444Z,37.85
2018-06-28T11:03:17.290Z,36.94
2018-06-28T11:05:46.138Z,36.49
2018-06-28T11:08:15.085Z,37.11
2018-06-28T11:10:43.967Z,37.75
2018-06-28T11:13:12.801Z,37.95
2018-06-28T11:15:41.634Z,37.01
2018-06-28T11:18:10.812Z,36.46
2018-06-28T11:20:39.681Z,35.59
2018-06-28T11:23:09.080Z,34.65
2018-06-28T11:25:38.002Z,35.03
2018-06-28T11:28:06.902Z,35.98
2018-06-28T11:30:53.368Z,36.22
2018-06-28T11:33:22.205Z,35.24
2018-06-28T11:35:51.135Z,34.35
2018-06-28T11:38:19.975Z,33.76
2018-06-28T11:40:48.819Z,33.97
2018-06-28T11:43:17.695Z,34.62
2018-06-28T11:45:46.590Z,35.43
2018-06-28T11:48:15.478Z,36.07
2018-06-28T11:50:44.538Z,36.55
2018-06-28T11:53:13.529Z,35.81
2018-06-28T11:55:42.392Z,35.03
2018-06-28T11:58:11.401Z,34.82
2018-06-28T12:00:40.291Z,35.20
2018-06-28T12:03:09.153Z,35.22
2018-06-28T12:05:38.085Z,34.69
2018-06-28T12:08:06.899Z,34.93
2018-06-28T12:10:35.733Z,34.76
2018-06-28T12:13:04.862Z,34.18
2018-06-28T12:15:34.955Z,33.63
2018-06-28T12:18:03.797Z,33.23
2018-06-28T12:20:32.643Z,33.22
2018-06-28T12:23:01.544Z,32.99
2018-06-28T12:25:30.490Z,32.68
2018-06-28T12:27:59.565Z,32.38
2018-06-28T12:30:28.407Z,32.08
2018-06-28T12:32:57.257Z,32.05
2018-06-28T12:35:26.152Z,32.06
2018-06-28T12:37:55.125Z,31.88
2018-06-28T12:40:23.980Z,31.88
2018-06-28T12:42:52.820Z,31.73
2018-06-28T12:45:21.726Z,31.60
2018-06-28T12:48:16.384Z,31.42
2018-06-28T12:50:45.261Z,31.78
2018-06-28T12:53:14.111Z,32.34
2018-06-28T12:56:25.965Z,32.72
2018-06-28T12:58:57.949Z,32.68
2018-06-28T13:01:27.455Z,32.27
2018-06-28T13:03:56.633Z,32.41
2018-06-28T13:06:25.521Z,32.53
2018-06-28T13:08:55.061Z,32.56
2018-06-28T13:11:24.141Z,32.59
2018-06-28T13:13:53.341Z,32.58
2018-06-28T13:16:23.254Z,32.76
2018-06-28T13:18:52.107Z,32.95
2018-06-28T13:21:20.947Z,32.95
2018-06-28T13:23:49.783Z,32.98
2018-06-28T13:26:19.014Z,32.79
2018-06-28T13:28:48.042Z,32.91
2018-06-28T13:31:16.866Z,32.98
2018-06-28T13:33:45.715Z,32.85
2018-06-28T13:36:14.589Z,32.88
2018-06-28T13:38:43.454Z,33.01
2018-06-28T13:41:12.458Z,33.20
2018-06-28T13:43:41.282Z,33.08
2018-06-28T13:46:10.232Z,32.91
2018-06-28T13:48:39.194Z,32.70
2018-06-28T13:51:08.129Z,32.38
2018-06-28T13:53:37.070Z,32.20
2018-06-28T13:56:06.078Z,32.10
2018-06-28T13:58:35.035Z,32.22
2018-06-28T14:01:03.924Z,32.18
2018-06-28T14:03:32.815Z,32.15
2018-06-28T14:06:01.760Z,31.76
2018-06-28T14:08:30.635Z,31.54
2018-06-28T14:10:59.611Z,31.54
2018-06-28T14:13:28.528Z,31.64
2018-06-28T14:15:57.417Z,31.99
2018-06-28T14:18:26.317Z,32.16
2018-06-28T14:20:55.181Z,32.01
2018-06-28T14:23:24.218Z,31.68
2018-06-28T14:25:53.197Z,31.37
2018-06-28T14:28:21.962Z,31.05
2018-06-28T14:30:50.866Z,30.95
2018-06-28T14:33:19.752Z,30.79
2018-06-28T14:35:48.601Z,30.73
2018-06-28T14:38:17.459Z,30.88
2018-06-28T14:40:46.314Z,31.11
2018-06-28T14:43:15.132Z,31.33
2018-06-28T14:45:45.230Z,31.34
2018-06-28T14:48:14.093Z,31.23
2018-06-28T14:50:42.959Z,30.97
2018-06-28T14:53:11.791Z,30.62
2018-06-28T14:55:40.648Z,30.37
2018-06-28T14:58:09.489Z,30.06
2018-06-28T15:00:38.391Z,30.06
2018-06-28T15:03:07.257Z,30.21
2018-06-28T15:05:36.139Z,30.38
2018-06-28T15:08:05.038Z,30.57
2018-06-28T15:10:33.918Z,30.75
2018-06-28T15:13:02.807Z,30.93
2018-06-28T15:15:31.679Z,30.86
2018-06-28T15:18:00.513Z,30.47
2018-06-28T15:20:29.393Z,30.37
2018-06-28T15:22:58.277Z,30.09
2018-06-28T15:25:27.119Z,30.05
2018-06-28T15:27:56.011Z,30.20
2018-06-28T15:30:28.135Z,30.45
2018-06-28T15:32:57.085Z,30.60
2018-06-28T15:35:25.892Z,30.81
2018-06-28T15:37:54.706Z,31.06
2018-06-28T15:40:23.573Z,31.14
2018-06-28T15:42:52.462Z,31.18
2018-06-28T15:45:21.462Z,31.22
2018-06-28T15:47:50.935Z,31.06
2018-06-28T15:50:19.749Z,30.84
2018-06-28T15:52:56.024Z,30.57
2018-06-28T15:55:24.898Z,30.43
2018-06-28T15:57:53.788Z,30.22
2018-06-28T16:00:22.616Z,30.36
2018-06-28T16:02:51.469Z,30.42
2018-06-28T16:05:20.313Z,30.58
2018-06-28T16:07:49.151Z,30.66
2018-06-28T16:10:18.037Z,30.64
2018-06-28T16:12:47.007Z,30.71
2018-06-28T16:15:15.861Z,30.62
2018-06-28T16:17:44.717Z,30.53
2018-06-28T16:20:13.780Z,30.49
2018-06-28T16:22:42.606Z,30.31
2018-06-28T16:25:11.513Z,30.26
2018-06-28T16:27:40.385Z,30.03
2018-06-28T16:30:09.217Z,30.01
2018-06-28T16:32:38.065Z,29.71
2018-06-28T16:35:06.998Z,29.50
2018-06-28T16:37:35.854Z,29.30
2018-06-28T16:40:04.815Z,29.20
2018-06-28T16:42:33.658Z,29.31
2018-06-28T16:45:02.575Z,29.48
2018-06-28T16:47:31.432Z,29.60
2018-06-28T16:50:00.328Z,29.69
2018-06-28T16:52:29.172Z,29.72
2018-06-28T16:54:57.969Z,29.77
2018-06-28T16:57:26.799Z,29.85
2018-06-28T16:59:55.687Z,29.98
2018-06-28T17:02:24.488Z,30.11
2018-06-28T17:04:53.310Z,30.15
2018-06-28T17:07:22.165Z,30.28
2018-06-28T17:09:51.022Z,30.13
2018-06-28T17:12:19.860Z,29.98
2018-06-28T17:14:48.721Z,29.93
2018-06-28T17:17:17.583Z,30.05
2018-06-28T17:19:46.602Z,29.82
2018-06-28T17:22:16.410Z,29.69
2018-06-28T17:24:45.226Z,29.68
2018-06-28T17:27:14.066Z,29.45
2018-06-28T17:29:42.922Z,29.25
2018-06-28T17:32:11.801Z,29.17
2018-06-28T17:34:40.666Z,28.97
2018-06-28T17:37:09.499Z,28.93
2018-06-28T17:39:38.419Z,28.63
2018-06-28T17:42:07.250Z,28.54
2018-06-28T17:44:39.392Z,28.51
2018-06-28T17:47:08.236Z,28.37
2018-06-28T17:49:37.105Z,28.47
2018-06-28T17:52:05.928Z,28.39
2018-06-28T17:54:34.773Z,28.39
2018-06-28T17:57:03.641Z,28.30
2018-06-28T17:59:32.487Z,28.17
2018-06-28T18:02:01.348Z,28.14
2018-06-28T18:04:30.217Z,28.13
2018-06-28T18:06:59.062Z,28.10
2018-06-28T18:09:27.893Z,28.11
2018-06-28T18:11:56.757Z,28.08
2018-06-28T18:14:25.610Z,27.93
2018-06-28T18:16:54.534Z,27.93
2018-06-28T18:19:23.386Z,27.87
2018-06-28T18:21:52.213Z,27.83
2018-06-28T18:24:21.088Z,27.78
2018-06-28T18:26:50.073Z,27.73
2018-06-28T18:29:18.934Z,27.71
2018-06-28T18:31:47.754Z,27.66
2018-06-28T18:34:16.597Z,27.71
2018-06-28T18:36:45.472Z,27.61
2018-06-28T18:39:14.340Z,27.54
2018-06-28T18:41:43.195Z,27.43
2018-06-28T18:44:12.064Z,27.37
2018-06-28T18:46:40.907Z,27.33
2018-06-28T18:49:09.882Z,27.21
2018-06-28T18:51:38.749Z,27.15
2018-06-28T18:54:07.591Z,27.05
2018-06-28T18:56:36.444Z,27.00
2018-06-28T18:59:05.305Z,26.96
2018-06-28T19:01:34.328Z,26.92
2018-06-28T19:04:03.191Z,26.98
2018-06-28T19:06:32.110Z,26.81
2018-06-28T19:09:00.969Z,26.76
2018-06-28T19:11:29.890Z,26.70
2018-06-28T19:14:16.496Z,26.64
2018-06-28T19:16:58.064Z,26.59
2018-06-28T19:19:26.925Z,26.50
2018-06-28T19:22:13.566Z,26.59
2018-06-28T19:24:42.452Z,26.58
2018-06-28T19:27:11.344Z,26.32
2018-06-28T19:29:58.282Z,26.26
2018-06-28T19:32:34.551Z,26.17
2018-06-28T19:35:03.770Z,26.05
2018-06-28T19:37:51.597Z,25.98
2018-06-28T19:40:38.217Z,25.90
2018-06-28T19:43:08.661Z,25.79
2018-06-28T19:45:37.500Z,25.69
2018-06-28T19:48:06.373Z,25.60
2018-06-28T19:50:53.177Z,25.46
2018-06-28T19:53:22.068Z,25.43
2018-06-28T19:55:50.958Z,25.31
2018-06-28T19:58:19.949Z,25.20
2018-06-28T20:01:06.765Z,25.15
2018-06-28T20:03:53.628Z,25.06
2018-06-28T20:06:22.472Z,25.01
2018-06-28T20:08:51.305Z,24.87
2018-06-28T20:11:20.252Z,24.82
2018-06-28T20:14:07.009Z,24.70
2018-06-28T20:16:53.438Z,24.61
2018-06-28T20:19:39.754Z,24.55
2018-06-28T20:22:08.652Z,24.53
2018-06-28T20:24:37.571Z,24.49
2018-06-28T20:27:24.254Z,24.45
2018-06-28T20:30:10.993Z,24.39
2018-06-28T20:32:57.668Z,24.37
2018-06-28T20:35:34.301Z,24.32
2018-06-28T20:38:03.131Z,24.23
2018-06-28T20:40:31.992Z,24.20
2018-06-28T20:43:00.819Z,24.15
2018-06-28T20:45:29.659Z,24.07
2018-06-28T20:47:58.507Z,24.00
2018-06-28T20:50:27.363Z,23.88
2018-06-28T20:52:56.233Z,23.85
2018-06-28T20:55:25.093Z,23.83
2018-06-28T20:57:53.981Z,23.79
2018-06-28T21:00:22.861Z,23.70
2018-06-28T21:02:51.730Z,23.65
2018-06-28T21:05:20.641Z,23.61
2018-06-28T21:07:49.489Z,23.68
2018-06-28T21:10:18.361Z,23.51
2018-06-28T21:12:47.189Z,23.50
2018-06-28T21:15:16.079Z,23.47
2018-06-28T21:17:44.954Z,23.45
2018-06-28T21:20:13.980Z,23.39
2018-06-28T21:22:42.854Z,23.27
2018-06-28T21:25:11.821Z,23.18
2018-06-28T21:27:40.694Z,23.14
2018-06-28T21:30:09.555Z,23.11
2018-06-28T21:32:38.398Z,23.12
2018-06-28T21:35:07.439Z,23.11
2018-06-28T21:37:36.334Z,23.07
2018-06-28T21:40:05.377Z,23.04
2018-06-28T21:42:37.363Z,23.01
2018-06-28T21:45:06.219Z,23.09
2018-06-28T21:47:35.117Z,22.93
2018-06-28T21:50:04.017Z,22.85
2018-06-28T21:52:32.845Z,22.77
2018-06-28T21:55:01.700Z,22.67
2018-06-28T21:57:30.518Z,22.65
2018-06-28T21:59:59.415Z,22.73
2018-06-28T22:02:28.275Z,22.60
2018-06-28T22:04:57.270Z,22.58
2018-06-28T22:07:26.128Z,22.41
2018-06-28T22:09:57.699Z,22.38
2018-06-28T22:12:26.579Z,22.32
2018-06-28T22:14:55.421Z,22.21
2018-06-28T22:17:24.287Z,22.13
2018-06-28T22:19:53.199Z,22.05
2018-06-28T22:22:21.963Z,22.03
2018-06-28T22:24:50.829Z,22.02
2018-06-28T22:27:19.685Z,21.98
2018-06-28T22:29:48.514Z,21.96
2018-06-28T22:32:17.382Z,21.88
2018-06-28T22:34:46.242Z,21.82
2018-06-28T22:37:15.077Z,21.79
2018-06-28T22:39:43.951Z,21.71
2018-06-28T22:42:12.805Z,21.58
2018-06-28T22:44:41.674Z,21.54
2018-06-28T22:48:08.602Z,21.51
2018-06-28T22:50:37.489Z,21.33
2018-06-28T22:53:06.699Z,21.18
2018-06-28T22:55:35.555Z,21.16
2018-06-28T22:58:04.399Z,21.16
2018-06-28T23:00:33.257Z,21.10
2018-06-28T23:03:02.129Z,21.05
2018-06-28T23:05:30.984Z,20.96
2018-06-28T23:07:59.844Z,20.86
2018-06-28T23:10:28.723Z,20.80
2018-06-28T23:12:57.610Z,20.71
2018-06-28T23:15:26.460Z,20.61
2018-06-28T23:17:55.324Z,20.58
2018-06-28T23:20:24.213Z,20.56
2018-06-28T23:22:53.366Z,20.47
2018-06-28T23:25:22.573Z,20.46
2018-06-28T23:27:51.964Z,20.47
2018-06-28T23:30:21.065Z,20.46
2018-06-28T23:32:49.977Z,20.37
2018-06-28T23:35:18.810Z,20.37
2018-06-28T23:37:47.644Z,20.37
2018-06-28T23:40:16.507Z,20.35
2018-06-28T23:42:45.334Z,20.27
2018-06-28T23:45:14.181Z,20.19
2018-06-28T23:47:43.075Z,20.17
2018-06-28T23:50:11.894Z,20.09
2018-06-28T23:52:47.110Z,19.92
2018-06-28T23:55:15.968Z,19.95
2018-06-28T23:57:44.785Z,19.94
